Time;durP1;ratioP1;P1;durP2;ratioP2;P2;SDS_P1;SDS_P2;PMS_P1;PMS_P2;Temp;Humidity;BMP_temperature;BMP_pressure;BME280_temperature;BME280_humidity;BME280_pressure;Samples;Min_cycle;Max_cycle;Signal;HPM_P1;HPM_P2
2023/11/16 00:01:41;;;;;;;;;;;7.40;99.90;;;;;;5071338;28;19908;-74
2023/11/16 00:04:07;;;;;;;;;;;7.40;99.90;;;;;;5071604;28;20085;-75
2023/11/16 00:06:32;;;;;;;;;;;7.30;99.90;;;;;;5053477;28;20012;-75
2023/11/16 00:08:59;;;;;;;;;;;7.20;99.90;;;;;;5071250;28;19908;-74
2023/11/16 00:11:27;;;;;;;;;;;7.20;99.90;;;;;;5071339;28;19916;-75
2023/11/16 00:13:52;;;;;;;;;;;7.20;99.90;;;;;;5053414;28;20050;-75
2023/11/16 00:16:19;;;;;;;;;;;7.10;99.90;;;;;;5071179;28;20397;-74
2023/11/16 00:18:46;;;;;;;;;;;7.10;99.90;;;;;;5071109;28;19915;-75
2023/11/16 00:21:12;;;;;;;;;;;7.00;99.90;;;;;;5071286;28;19908;-73
2023/11/16 00:23:37;;;;;;;;;;;7.00;99.90;;;;;;5071278;28;19913;-75
2023/11/16 00:26:03;;;;;;;;;;;6.90;99.90;;;;;;5071237;28;19908;-75
2023/11/16 00:28:29;;;;;;;;;;;6.90;99.90;;;;;;5071270;28;20376;-75
2023/11/16 00:30:54;;;;;;;;;;;7.00;99.90;;;;;;5071022;28;20364;-74
2023/11/16 00:33:20;;;;;;;;;;;7.00;99.90;;;;;;5070882;28;20038;-75
2023/11/16 00:35:46;;;;;;;;;;;7.00;99.90;;;;;;5053204;28;19908;-74
2023/11/16 00:38:15;;;;;;;;;;;7.00;99.90;;;;;;5053402;28;19934;-75
2023/11/16 00:40:42;;;;;;;;;;;7.00;99.90;;;;;;5053309;28;19914;-75
2023/11/16 00:43:08;;;;;;;;;;;7.00;99.90;;;;;;5053273;28;20376;-75
2023/11/16 00:45:37;;;;;;;;;;;6.90;99.90;;;;;;5071546;28;19908;-74
2023/11/16 00:48:02;;;;;;;;;;;6.90;99.90;;;;;;5070863;28;19927;-75
2023/11/16 00:50:29;;;;;;;;;;;6.90;99.90;;;;;;5052980;28;19920;-75
2023/11/16 00:52:55;;;;;;;;;;;6.80;99.90;;;;;;5070982;28;19913;-75
2023/11/16 00:55:21;;;;;;;;;;;6.80;99.90;;;;;;5071228;28;19951;-75
2023/11/16 00:57:47;;;;;;;;;;;6.80;99.90;;;;;;5053444;28;19995;-74
2023/11/16 01:00:16;;;;;;;;;;;6.70;99.90;;;;;;5071199;28;19992;-75
2023/11/16 01:02:42;;;;;;;;;;;6.70;99.90;;;;;;5071869;28;19966;-74
2023/11/16 01:05:10;;;;;;;;;;;6.70;99.90;;;;;;5071982;28;19951;-75
2023/11/16 01:07:38;;;;;;;;;;;6.70;99.90;;;;;;5072584;28;19908;-76
2023/11/16 01:10:05;;;;;;;;;;;6.60;99.90;;;;;;5070229;28;19961;-75
2023/11/16 01:12:31;;;;;;;;;;;6.60;99.90;;;;;;5069848;28;19923;-74
2023/11/16 01:14:59;;;;;;;;;;;6.60;99.90;;;;;;5052346;28;19911;-75
2023/11/16 01:17:32;;;;;;;;;;;6.60;99.90;;;;;;5070241;28;20003;-74
2023/11/16 01:19:59;;;;;;;;;;;6.60;99.90;;;;;;5069997;28;20507;-75
2023/11/16 01:22:26;;;;;;;;;;;6.60;99.90;;;;;;5070111;28;19908;-74
2023/11/16 01:24:52;;;;;;;;;;;6.50;99.90;;;;;;5052216;28;19999;-75
2023/11/16 01:27:25;;;;;;;;;;;6.60;99.90;;;;;;5052230;28;19995;-75
2023/11/16 01:29:51;;;;;;;;;;;6.50;99.90;;;;;;5052174;28;19911;-75
2023/11/16 01:32:17;;;;;;;;;;;6.60;99.90;;;;;;5070163;28;19916;-75
2023/11/16 01:34:45;;;;;;;;;;;6.50;99.90;;;;;;5070145;28;19908;-75
2023/11/16 01:37:11;;;;;;;;;;;6.50;99.90;;;;;;5052150;28;19909;-75
2023/11/16 01:39:39;;;;;;;;;;;6.40;99.90;;;;;;5051931;28;20053;-74
2023/11/16 01:42:06;;;;;;;;;;;6.50;99.90;;;;;;5070199;28;19905;-74
2023/11/16 01:44:32;;;;;;;;;;;6.50;99.90;;;;;;5051986;28;20001;-74
2023/11/16 01:46:58;;;;;;;;;;;6.40;99.90;;;;;;5051784;28;20469;-75
2023/11/16 01:49:23;;;;;;;;;;;6.40;99.90;;;;;;5070066;28;19908;-75
2023/11/16 01:51:54;;;;;;;;;;;6.40;99.90;;;;;;5070176;28;19916;-75
2023/11/16 01:54:20;;;;;;;;;;;6.40;99.90;;;;;;5052113;28;19927;-75
2023/11/16 01:56:47;;;;;;;;;;;6.50;99.90;;;;;;5052089;28;19912;-74
2023/11/16 01:59:13;;;;;;;;;;;6.50;99.90;;;;;;5052088;28;20047;-74
2023/11/16 02:01:39;;;;;;;;;;;6.50;99.90;;;;;;5069863;28;19966;-74
2023/11/16 02:04:05;;;;;;;;;;;6.40;99.90;;;;;;5071049;28;20013;-74
2023/11/16 02:06:31;;;;;;;;;;;6.50;99.90;;;;;;5056011;28;19904;-74
2023/11/16 02:08:57;;;;;;;;;;;6.60;99.90;;;;;;5055778;28;19915;-75
2023/11/16 02:11:23;;;;;;;;;;;6.50;99.90;;;;;;5074194;28;19912;-75
2023/11/16 02:13:49;;;;;;;;;;;6.60;99.90;;;;;;5055577;28;19911;-75
2023/11/16 02:16:14;;;;;;;;;;;6.60;99.90;;;;;;5073519;28;20352;-75
2023/11/16 02:18:40;;;;;;;;;;;6.50;99.90;;;;;;5073319;28;20007;-75
2023/11/16 02:21:06;;;;;;;;;;;6.50;99.90;;;;;;5055801;28;19905;-75
2023/11/16 02:23:32;;;;;;;;;;;6.50;99.90;;;;;;5055866;28;20006;-75
2023/11/16 02:25:58;;;;;;;;;;;6.50;99.90;;;;;;5055700;28;20007;-75
2023/11/16 02:28:23;;;;;;;;;;;6.60;99.90;;;;;;5055380;28;19908;-75
2023/11/16 02:30:49;;;;;;;;;;;6.60;99.90;;;;;;5055351;28;19908;-75
2023/11/16 02:33:15;;;;;;;;;;;6.60;99.90;;;;;;5073497;28;19931;-75
2023/11/16 02:35:41;;;;;;;;;;;6.70;99.90;;;;;;5073596;28;19912;-74
2023/11/16 02:38:07;;;;;;;;;;;6.70;99.90;;;;;;5055421;28;19908;-75
2023/11/16 02:40:32;;;;;;;;;;;6.80;99.90;;;;;;5055443;28;19908;-74
2023/11/16 02:42:59;;;;;;;;;;;6.80;99.90;;;;;;5055901;28;19912;-75
2023/11/16 02:45:25;;;;;;;;;;;6.80;99.90;;;;;;5055562;28;19911;-75
2023/11/16 02:47:52;;;;;;;;;;;6.80;99.90;;;;;;5055368;28;19924;-74
2023/11/16 02:50:19;;;;;;;;;;;6.80;99.90;;;;;;5055162;28;20014;-75
2023/11/16 02:52:46;;;;;;;;;;;6.70;99.90;;;;;;5055375;28;19916;-75
2023/11/16 02:55:11;;;;;;;;;;;6.70;99.90;;;;;;5073303;28;19914;-75
2023/11/16 02:57:39;;;;;;;;;;;6.70;99.90;;;;;;5055253;28;19987;-75
2023/11/16 03:00:06;;;;;;;;;;;6.70;99.90;;;;;;5073601;28;19919;-75
2023/11/16 03:02:32;;;;;;;;;;;6.80;99.90;;;;;;5073196;28;19915;-75
2023/11/16 03:04:57;;;;;;;;;;;6.80;99.90;;;;;;5073476;28;19904;-75
2023/11/16 03:07:23;;;;;;;;;;;6.70;99.90;;;;;;5073368;28;19962;-75
2023/11/16 03:09:48;;;;;;;;;;;6.80;99.90;;;;;;5073993;28;19919;-76
2023/11/16 03:12:14;;;;;;;;;;;6.80;99.90;;;;;;5074043;28;20571;-76
2023/11/16 03:14:40;;;;;;;;;;;6.90;99.90;;;;;;5054775;28;19915;-75
2023/11/16 03:17:06;;;;;;;;;;;6.90;99.90;;;;;;5072332;28;20243;-74
2023/11/16 03:19:33;;;;;;;;;;;6.90;99.90;;;;;;5054345;28;19905;-75
2023/11/16 03:22:00;;;;;;;;;;;6.90;99.90;;;;;;5072227;28;19908;-75
2023/11/16 03:24:26;;;;;;;;;;;7.00;99.90;;;;;;5054130;28;19908;-75
2023/11/16 03:26:52;;;;;;;;;;;7.00;99.90;;;;;;5054185;28;19904;-74
2023/11/16 03:29:17;;;;;;;;;;;6.80;99.90;;;;;;5072221;28;20462;-75
2023/11/16 03:31:44;;;;;;;;;;;6.80;99.90;;;;;;5053903;28;19908;-74
2023/11/16 03:34:10;;;;;;;;;;;6.60;99.90;;;;;;5053910;28;19913;-75
2023/11/16 03:36:35;;;;;;;;;;;6.50;99.90;;;;;;5071837;28;20315;-75
2023/11/16 03:39:01;;;;;;;;;;;6.50;99.90;;;;;;5053757;28;19908;-75
2023/11/16 03:41:27;;;;;;;;;;;6.50;99.90;;;;;;5071880;28;19915;-75
2023/11/16 03:43:52;;;;;;;;;;;6.20;99.90;;;;;;5053702;28;20023;-75
2023/11/16 03:46:18;;;;;;;;;;;6.20;99.90;;;;;;5053802;28;19908;-75
2023/11/16 03:48:43;;;;;;;;;;;6.20;99.90;;;;;;5071492;28;19962;-75
2023/11/16 03:51:12;;;;;;;;;;;6.20;99.90;;;;;;5054047;28;19912;-75
2023/11/16 03:53:38;;;;;;;;;;;6.10;99.90;;;;;;5071682;28;19934;-75
2023/11/16 03:56:04;;;;;;;;;;;6.10;99.90;;;;;;5071421;28;20259;-75
2023/11/16 03:58:29;;;;;;;;;;;6.10;99.90;;;;;;5053357;28;20299;-75
2023/11/16 04:00:55;;;;;;;;;;;6.00;99.90;;;;;;5053621;28;19912;-75
2023/11/16 04:03:20;;;;;;;;;;;6.00;99.90;;;;;;5071108;28;20137;-75
2023/11/16 04:05:46;;;;;;;;;;;6.00;99.90;;;;;;5071311;28;19919;-75
2023/11/16 04:08:11;;;;;;;;;;;5.90;99.90;;;;;;5053501;28;19911;-75
2023/11/16 04:10:37;;;;;;;;;;;5.90;99.90;;;;;;5070857;28;19908;-75
2023/11/16 04:13:06;;;;;;;;;;;5.90;99.90;;;;;;5053388;28;19912;-75
2023/11/16 04:15:31;;;;;;;;;;;5.80;99.90;;;;;;5071346;28;20420;-74
2023/11/16 04:17:57;;;;;;;;;;;5.90;99.90;;;;;;5071222;28;20460;-75
2023/11/16 04:20:23;;;;;;;;;;;5.70;99.90;;;;;;5053053;28;20049;-75
2023/11/16 04:22:49;;;;;;;;;;;5.80;99.90;;;;;;5071021;28;19909;-75
2023/11/16 04:25:22;;;;;;;;;;;5.80;99.90;;;;;;5053111;28;20288;-75
2023/11/16 04:27:48;;;;;;;;;;;5.80;99.90;;;;;;5052686;28;19912;-74
2023/11/16 04:30:16;;;;;;;;;;;5.80;99.90;;;;;;5053013;28;19909;-76
2023/11/16 04:32:42;;;;;;;;;;;5.80;99.90;;;;;;5071088;28;19943;-75
2023/11/16 04:35:13;;;;;;;;;;;5.80;99.90;;;;;;5052972;28;19934;-75
2023/11/16 04:37:39;;;;;;;;;;;5.80;99.90;;;;;;5070907;28;19930;-75
2023/11/16 04:40:13;;;;;;;;;;;5.90;99.90;;;;;;5052999;28;19995;-75
2023/11/16 04:42:41;;;;;;;;;;;5.90;99.90;;;;;;5070910;28;19904;-75
2023/11/16 04:45:11;;;;;;;;;;;5.90;99.90;;;;;;5070970;28;19904;-74
2023/11/16 04:47:39;;;;;;;;;;;5.90;99.90;;;;;;5070849;28;20447;-75
2023/11/16 04:50:08;;;;;;;;;;;6.10;99.90;;;;;;5070453;28;19909;-74
2023/11/16 04:52:34;;;;;;;;;;;6.10;99.90;;;;;;5071989;28;19919;-74
2023/11/16 04:54:59;;;;;;;;;;;6.10;99.90;;;;;;5053100;28;20427;-75
2023/11/16 04:57:25;;;;;;;;;;;6.20;99.90;;;;;;5071264;28;19911;-75
2023/11/16 04:59:53;;;;;;;;;;;6.20;99.90;;;;;;5053097;28;20335;-74
2023/11/16 05:02:18;;;;;;;;;;;6.30;99.90;;;;;;5071602;28;20399;-74
2023/11/16 05:04:44;;;;;;;;;;;6.30;99.90;;;;;;5070802;28;19908;-75
2023/11/16 05:07:10;;;;;;;;;;;6.40;99.90;;;;;;5071173;28;19908;-74
2023/11/16 05:09:36;;;;;;;;;;;6.40;99.90;;;;;;5053406;28;19995;-74
2023/11/16 05:12:02;;;;;;;;;;;6.30;99.90;;;;;;5071271;28;19908;-75
2023/11/16 05:14:28;;;;;;;;;;;6.30;99.90;;;;;;5071987;28;19969;-74
2023/11/16 05:16:54;;;;;;;;;;;6.30;99.90;;;;;;5054406;28;19916;-76
2023/11/16 05:19:19;;;;;;;;;;;6.30;99.90;;;;;;5052809;28;19905;-75
2023/11/16 05:21:45;;;;;;;;;;;6.20;99.90;;;;;;5052150;28;19970;-74
2023/11/16 05:24:10;;;;;;;;;;;6.10;99.90;;;;;;5070276;28;20319;-75
2023/11/16 05:26:39;;;;;;;;;;;6.00;99.90;;;;;;5069845;28;19954;-75
2023/11/16 05:29:05;;;;;;;;;;;5.90;99.90;;;;;;5070343;28;19904;-74
2023/11/16 05:31:31;;;;;;;;;;;5.90;99.90;;;;;;5069381;28;19909;-74
2023/11/16 05:33:56;;;;;;;;;;;5.80;99.90;;;;;;5069630;28;19950;-75
2023/11/16 05:36:22;;;;;;;;;;;5.90;99.90;;;;;;5070091;28;19912;-76
2023/11/16 05:38:49;;;;;;;;;;;5.80;99.90;;;;;;5052933;28;19931;-75
2023/11/16 05:41:15;;;;;;;;;;;5.80;99.90;;;;;;5073924;28;19915;-74
2023/11/16 05:43:41;;;;;;;;;;;5.80;99.90;;;;;;5055626;28;19908;-75
2023/11/16 05:46:06;;;;;;;;;;;5.90;99.90;;;;;;5073815;28;20432;-74
2023/11/16 05:48:32;;;;;;;;;;;5.70;99.90;;;;;;5073297;28;20300;-74
2023/11/16 05:50:57;;;;;;;;;;;5.60;99.90;;;;;;5073636;28;19912;-74
2023/11/16 05:53:23;;;;;;;;;;;5.60;99.90;;;;;;5072976;28;19986;-75
2023/11/16 05:55:48;;;;;;;;;;;5.60;99.90;;;;;;5055471;28;20007;-75
2023/11/16 05:58:14;;;;;;;;;;;5.50;99.90;;;;;;5055717;28;20003;-75
2023/11/16 06:00:40;;;;;;;;;;;5.50;99.90;;;;;;5055773;28;19909;-74
2023/11/16 06:03:06;;;;;;;;;;;5.50;99.90;;;;;;5073735;28;19915;-74
2023/11/16 06:05:35;;;;;;;;;;;5.50;99.90;;;;;;5055672;28;19908;-74
2023/11/16 06:08:01;;;;;;;;;;;5.50;99.90;;;;;;5073430;28;19914;-75
2023/11/16 06:10:26;;;;;;;;;;;5.60;99.90;;;;;;5073528;28;19904;-74
2023/11/16 06:12:52;;;;;;;;;;;5.60;99.90;;;;;;5073563;28;19924;-75
2023/11/16 06:15:18;;;;;;;;;;;5.60;99.90;;;;;;5073679;28;19904;-74
2023/11/16 06:17:44;;;;;;;;;;;5.70;99.90;;;;;;5073378;28;19904;-75
2023/11/16 06:20:10;;;;;;;;;;;5.50;99.90;;;;;;5073479;28;19970;-77
2023/11/16 06:22:36;;;;;;;;;;;5.60;99.90;;;;;;5073364;28;19944;-75
2023/11/16 06:25:04;;;;;;;;;;;5.50;99.90;;;;;;5073098;28;19908;-74
2023/11/16 06:27:33;;;;;;;;;;;5.50;99.90;;;;;;5073142;28;19915;-74
2023/11/16 06:29:59;;;;;;;;;;;5.50;99.90;;;;;;5073450;28;19908;-75
2023/11/16 06:32:24;;;;;;;;;;;5.60;99.90;;;;;;5073452;28;19916;-74
2023/11/16 06:34:50;;;;;;;;;;;5.80;99.90;;;;;;5055981;28;19904;-75
2023/11/16 06:37:16;;;;;;;;;;;5.90;99.90;;;;;;5073820;28;19916;-75
2023/11/16 06:39:42;;;;;;;;;;;6.10;99.90;;;;;;5071934;28;19932;-75
2023/11/16 06:42:07;;;;;;;;;;;6.40;99.90;;;;;;5073805;28;20313;-75
2023/11/16 06:44:33;;;;;;;;;;;6.90;99.90;;;;;;5073593;28;20308;-76
2023/11/16 06:46:58;;;;;;;;;;;7.30;99.90;;;;;;5068943;28;19920;-75
2023/11/16 06:49:27;;;;;;;;;;;7.60;99.90;;;;;;5068767;28;20388;-75
2023/11/16 06:51:53;;;;;;;;;;;7.80;99.90;;;;;;5053609;28;19917;-75
2023/11/16 06:54:18;;;;;;;;;;;8.00;99.90;;;;;;5068952;28;19912;-75
2023/11/16 06:56:44;;;;;;;;;;;8.30;99.90;;;;;;5053825;28;19905;-76
2023/11/16 06:59:12;;;;;;;;;;;8.50;99.90;;;;;;5053750;28;19909;-75
2023/11/16 07:01:43;;;;;;;;;;;8.80;99.90;;;;;;5054195;28;19981;-75
2023/11/16 07:04:09;;;;;;;;;;;9.00;99.90;;;;;;5054166;28;20004;-75
2023/11/16 07:06:35;;;;;;;;;;;9.10;99.90;;;;;;5035969;28;20003;-75
2023/11/16 07:09:01;;;;;;;;;;;9.20;99.90;;;;;;5036718;28;19912;-75
2023/11/16 07:11:26;;;;;;;;;;;9.50;99.90;;;;;;5036376;28;19904;-75
2023/11/16 07:13:52;;;;;;;;;;;9.80;99.90;;;;;;5054085;28;19908;-75
2023/11/16 07:16:18;;;;;;;;;;;10.10;99.90;;;;;;5036680;28;19912;-76
2023/11/16 07:18:47;;;;;;;;;;;10.30;99.90;;;;;;5036720;28;19915;-75
2023/11/16 07:21:14;;;;;;;;;;;10.50;99.90;;;;;;5054272;28;19908;-75
2023/11/16 07:23:41;;;;;;;;;;;10.40;99.90;;;;;;5056247;28;19905;-76
2023/11/16 07:26:08;;;;;;;;;;;10.40;99.90;;;;;;5053276;28;19951;-75
2023/11/16 07:28:34;;;;;;;;;;;10.50;99.90;;;;;;5052624;28;19995;-75
2023/11/16 07:31:01;;;;;;;;;;;10.60;99.90;;;;;;5034160;28;20070;-76
2023/11/16 07:33:27;;;;;;;;;;;10.70;99.90;;;;;;5034604;28;19916;-75
2023/11/16 07:35:53;;;;;;;;;;;10.70;99.90;;;;;;5052168;28;19904;-76
2023/11/16 07:38:20;;;;;;;;;;;10.80;99.90;;;;;;5052593;28;19909;-77
2023/11/16 07:40:45;;;;;;;;;;;10.90;99.90;;;;;;5052334;28;19919;-75
2023/11/16 07:43:11;;;;;;;;;;;10.90;99.90;;;;;;5052070;28;19909;-75
2023/11/16 07:45:37;;;;;;;;;;;11.00;99.90;;;;;;5052391;28;20369;-76
2023/11/16 07:48:04;;;;;;;;;;;11.40;99.90;;;;;;5047108;28;19924;-75
2023/11/16 07:50:31;;;;;;;;;;;11.70;99.90;;;;;;5071964;28;19909;-75
2023/11/16 07:52:59;;;;;;;;;;;12.00;99.90;;;;;;5054356;28;19923;-76
2023/11/16 07:55:25;;;;;;;;;;;12.20;99.90;;;;;;5072733;28;19904;-76
2023/11/16 07:57:52;;;;;;;;;;;12.40;99.90;;;;;;5072588;28;19919;-76
2023/11/16 08:00:34;;;;;;;;;;;12.50;99.90;;;;;;5054382;28;19942;-76
2023/11/16 08:05:48;;;;;;;;;;;12.30;99.90;;;;;;5072479;28;19912;-76
2023/11/16 08:08:15;;;;;;;;;;;12.20;99.90;;;;;;5070585;28;19908;-75
2023/11/16 08:10:44;;;;;;;;;;;12.30;99.90;;;;;;5054024;28;19913;-75
2023/11/16 08:13:12;;;;;;;;;;;12.30;99.90;;;;;;5053763;28;20372;-75
2023/11/16 08:15:41;;;;;;;;;;;12.30;99.90;;;;;;5072356;28;20109;-75
2023/11/16 08:18:12;;;;;;;;;;;12.30;99.90;;;;;;5053551;28;19908;-75
2023/11/16 08:20:37;;;;;;;;;;;12.30;99.90;;;;;;5071717;28;20426;-75
2023/11/16 08:23:06;;;;;;;;;;;12.30;99.90;;;;;;5071613;28;20023;-75
2023/11/16 08:25:32;;;;;;;;;;;12.20;99.90;;;;;;5072159;28;19966;-76
2023/11/16 08:27:58;;;;;;;;;;;11.90;99.90;;;;;;5072045;28;19908;-75
2023/11/16 08:30:23;;;;;;;;;;;11.80;99.90;;;;;;5053476;28;19908;-74
2023/11/16 08:32:49;;;;;;;;;;;11.60;99.90;;;;;;5053988;28;20304;-75
2023/11/16 08:35:15;;;;;;;;;;;11.50;99.90;;;;;;5070807;28;19908;-75
2023/11/16 08:37:41;;;;;;;;;;;11.50;99.90;;;;;;5053550;28;19912;-74
2023/11/16 08:40:08;;;;;;;;;;;11.40;99.90;;;;;;5071551;28;19915;-74
2023/11/16 08:42:41;;;;;;;;;;;11.40;99.90;;;;;;5071307;28;19936;-75
2023/11/16 08:45:17;;;;;;;;;;;11.30;99.90;;;;;;5053248;28;19971;-74
2023/11/16 08:47:44;;;;;;;;;;;11.40;99.90;;;;;;5052809;28;19923;-75
2023/11/16 08:50:12;;;;;;;;;;;11.30;99.90;;;;;;5071501;28;19928;-74
2023/11/16 08:52:41;;;;;;;;;;;11.30;99.90;;;;;;5052720;28;19959;-74
2023/11/16 08:55:07;;;;;;;;;;;11.30;99.90;;;;;;5071244;28;19904;-75
2023/11/16 08:57:33;;;;;;;;;;;11.30;99.90;;;;;;5071465;28;19908;-75
2023/11/16 09:00:02;;;;;;;;;;;11.30;99.90;;;;;;5052688;28;20430;-74
2023/11/16 09:02:27;;;;;;;;;;;11.30;99.90;;;;;;5071426;28;19932;-75
2023/11/16 09:04:55;;;;;;;;;;;11.20;99.90;;;;;;5071146;28;19950;-74
2023/11/16 09:07:21;;;;;;;;;;;11.20;99.90;;;;;;5071417;28;19905;-75
2023/11/16 09:09:47;;;;;;;;;;;11.30;99.90;;;;;;5071430;28;19947;-74
2023/11/16 09:12:12;;;;;;;;;;;11.30;99.90;;;;;;5071263;28;19966;-75
2023/11/16 09:14:40;;;;;;;;;;;11.20;99.90;;;;;;5069746;28;19938;-74
2023/11/16 09:17:16;;;;;;;;;;;11.20;99.90;;;;;;5053429;28;20353;-75
2023/11/16 09:19:42;;;;;;;;;;;11.30;99.90;;;;;;5052781;28;19909;-74
2023/11/16 09:22:09;;;;;;;;;;;11.30;99.90;;;;;;5053654;28;19919;-75
2023/11/16 09:24:37;;;;;;;;;;;11.30;99.90;;;;;;5070377;28;19944;-75
2023/11/16 09:27:04;;;;;;;;;;;11.30;99.90;;;;;;5072104;28;19932;-75
2023/11/16 09:29:30;;;;;;;;;;;11.30;99.90;;;;;;5072622;28;20273;-75
2023/11/16 09:31:56;;;;;;;;;;;11.30;99.90;;;;;;5072045;28;19916;-75
2023/11/16 09:34:21;;;;;;;;;;;11.30;99.90;;;;;;5073843;28;20413;-74
2023/11/16 09:36:49;;;;;;;;;;;11.40;99.90;;;;;;5071860;28;19914;-74
2023/11/16 09:39:15;;;;;;;;;;;11.30;99.90;;;;;;5069953;28;19915;-75
2023/11/16 09:41:44;;;;;;;;;;;11.30;99.90;;;;;;5051915;28;20296;-74
2023/11/16 09:44:14;;;;;;;;;;;11.30;99.90;;;;;;5070130;28;19911;-75
2023/11/16 09:46:44;;;;;;;;;;;11.20;99.90;;;;;;5051881;28;20003;-75
2023/11/16 09:49:10;;;;;;;;;;;11.30;99.90;;;;;;5052359;28;20277;-74
2023/11/16 09:51:36;;;;;;;;;;;11.30;99.90;;;;;;5070204;28;19915;-75
2023/11/16 09:54:03;;;;;;;;;;;11.30;99.90;;;;;;5052207;28;19912;-74
2023/11/16 09:56:30;;;;;;;;;;;11.30;99.90;;;;;;5069824;28;19935;-74
2023/11/16 09:59:06;;;;;;;;;;;11.30;99.90;;;;;;5052215;28;19917;-75
2023/11/16 10:01:38;;;;;;;;;;;11.20;99.90;;;;;;5070132;28;19943;-74
2023/11/16 10:04:07;;;;;;;;;;;11.20;99.90;;;;;;5052055;28;20404;-74
2023/11/16 10:06:32;;;;;;;;;;;11.20;99.90;;;;;;5051963;28;19917;-74
2023/11/16 10:09:02;;;;;;;;;;;11.30;99.90;;;;;;5069973;28;19922;-75
2023/11/16 10:11:27;;;;;;;;;;;11.30;99.90;;;;;;5070383;28;20403;-75
2023/11/16 10:13:56;;;;;;;;;;;11.30;99.90;;;;;;5068614;28;19913;-75
2023/11/16 10:16:25;;;;;;;;;;;11.20;99.90;;;;;;5070177;28;19918;-75
2023/11/16 10:18:58;;;;;;;;;;;11.30;99.90;;;;;;5069737;28;19959;-75
2023/11/16 10:21:24;;;;;;;;;;;11.30;99.90;;;;;;5052230;28;20332;-75
2023/11/16 10:23:51;;;;;;;;;;;11.40;99.90;;;;;;5070248;28;19955;-75
2023/11/16 10:26:19;;;;;;;;;;;11.40;99.90;;;;;;5072972;28;19915;-75
2023/11/16 10:28:50;;;;;;;;;;;11.50;99.90;;;;;;5073863;28;19908;-75
2023/11/16 10:31:18;;;;;;;;;;;11.60;99.90;;;;;;5073840;28;19908;-75
2023/11/16 10:33:45;;;;;;;;;;;11.60;99.90;;;;;;5073257;28;19920;-75
2023/11/16 10:36:11;;;;;;;;;;;11.60;99.90;;;;;;5073813;28;19908;-76
2023/11/16 10:38:36;;;;;;;;;;;11.60;99.90;;;;;;5073612;28;20388;-75
2023/11/16 10:41:03;;;;;;;;;;;11.70;99.90;;;;;;5073397;28;20054;-75
2023/11/16 10:43:28;;;;;;;;;;;11.60;99.90;;;;;;5072496;28;19954;-75
2023/11/16 10:45:55;;;;;;;;;;;11.70;99.90;;;;;;5072470;28;20707;-75
2023/11/16 10:48:21;;;;;;;;;;;11.70;99.90;;;;;;5055490;28;19924;-75
2023/11/16 10:50:47;;;;;;;;;;;11.70;99.90;;;;;;5055205;28;20292;-74
2023/11/16 10:53:15;;;;;;;;;;;11.70;99.90;;;;;;5072844;28;19916;-75
2023/11/16 10:55:44;;;;;;;;;;;11.80;99.90;;;;;;5073698;28;19915;-74
2023/11/16 10:58:11;;;;;;;;;;;11.80;99.90;;;;;;5072670;28;19904;-75
2023/11/16 11:00:37;;;;;;;;;;;11.80;99.90;;;;;;5073109;28;20288;-74
2023/11/16 11:03:06;;;;;;;;;;;11.80;99.90;;;;;;5072777;28;19904;-75
2023/11/16 11:05:31;;;;;;;;;;;11.80;99.90;;;;;;5072840;28;20369;-75
2023/11/16 11:07:57;;;;;;;;;;;11.80;99.90;;;;;;5055489;28;19942;-74
2023/11/16 11:10:24;;;;;;;;;;;11.80;99.90;;;;;;5055982;28;19905;-75
2023/11/16 11:12:50;;;;;;;;;;;11.80;99.90;;;;;;5055013;28;19912;-76
2023/11/16 11:15:30;;;;;;;;;;;11.80;99.90;;;;;;5073741;28;19908;-75
2023/11/16 11:17:56;;;;;;;;;;;11.90;99.90;;;;;;5055352;28;20272;-75
2023/11/16 11:20:45;;;;;;;;;;;11.90;99.90;;;;;;5073920;28;19998;-75
2023/11/16 11:23:13;;;;;;;;;;;11.90;99.90;;;;;;5073765;28;20439;-75
2023/11/16 11:25:39;;;;;;;;;;;12.00;99.90;;;;;;5055443;28;19974;-74
2023/11/16 11:28:05;;;;;;;;;;;12.00;99.90;;;;;;5073704;28;19908;-75
2023/11/16 11:30:32;;;;;;;;;;;12.00;99.90;;;;;;5055504;28;19908;-75
2023/11/16 11:32:59;;;;;;;;;;;12.00;99.90;;;;;;5073686;28;19916;-76
2023/11/16 11:35:25;;;;;;;;;;;12.00;99.90;;;;;;5073927;28;19971;-75
2023/11/16 11:37:52;;;;;;;;;;;12.00;99.90;;;;;;5054862;28;20376;-76
2023/11/16 11:40:24;;;;;;;;;;;12.00;99.90;;;;;;5056110;28;19916;-74
2023/11/16 11:42:52;;;;;;;;;;;12.00;99.90;;;;;;5056946;28;19912;-75
2023/11/16 11:45:19;;;;;;;;;;;12.00;99.90;;;;;;5056313;28;19904;-75
2023/11/16 11:47:48;;;;;;;;;;;12.10;99.90;;;;;;5072315;28;19963;-75
2023/11/16 11:50:24;;;;;;;;;;;12.10;99.90;;;;;;5053988;28;19908;-75
2023/11/16 11:52:52;;;;;;;;;;;12.10;99.90;;;;;;5053616;28;19973;-74
2023/11/16 11:55:24;;;;;;;;;;;12.10;99.90;;;;;;5053810;28;19904;-75
2023/11/16 11:57:53;;;;;;;;;;;12.10;99.90;;;;;;5070030;28;19908;-74
2023/11/16 12:00:18;;;;;;;;;;;12.20;99.90;;;;;;5066775;28;19908;-75
2023/11/16 12:02:44;;;;;;;;;;;12.20;99.90;;;;;;5051723;28;19948;-74
2023/11/16 12:05:17;;;;;;;;;;;12.20;99.90;;;;;;5051656;28;19913;-75
2023/11/16 12:07:43;;;;;;;;;;;12.20;99.90;;;;;;5044663;28;19916;-74
2023/11/16 12:10:09;;;;;;;;;;;12.30;99.90;;;;;;5076623;28;19919;-74
2023/11/16 12:12:38;;;;;;;;;;;12.30;99.90;;;;;;5059008;28;19916;-75
2023/11/16 12:15:04;;;;;;;;;;;12.30;99.90;;;;;;5043623;28;20020;-75
2023/11/16 12:17:29;;;;;;;;;;;12.40;99.90;;;;;;5060670;28;20412;-74
2023/11/16 12:19:58;;;;;;;;;;;12.40;99.90;;;;;;5042362;28;19904;-75
2023/11/16 12:22:26;;;;;;;;;;;12.50;99.90;;;;;;5062274;28;19908;-75
2023/11/16 12:24:52;;;;;;;;;;;12.50;99.90;;;;;;5066009;28;19999;-74
2023/11/16 12:27:17;;;;;;;;;;;12.50;99.90;;;;;;5071471;28;19991;-74
2023/11/16 12:29:56;;;;;;;;;;;12.50;99.90;;;;;;5053283;28;20339;-74
2023/11/16 12:32:21;;;;;;;;;;;12.50;99.90;;;;;;5071178;28;19913;-75
2023/11/16 12:34:48;;;;;;;;;;;12.60;99.90;;;;;;5070732;28;19912;-75
2023/11/16 12:37:13;;;;;;;;;;;12.60;99.90;;;;;;5053476;28;20050;-75
2023/11/16 12:39:39;;;;;;;;;;;12.70;99.90;;;;;;5071018;28;20016;-75
2023/11/16 12:42:08;;;;;;;;;;;12.70;99.90;;;;;;5071088;28;19913;-74
2023/11/16 12:44:34;;;;;;;;;;;12.70;99.90;;;;;;5052848;28;19930;-75
2023/11/16 12:46:59;;;;;;;;;;;12.60;99.90;;;;;;5067298;28;20003;-76
2023/11/16 12:49:25;;;;;;;;;;;12.60;99.90;;;;;;5050473;28;20025;-75
2023/11/16 12:51:50;;;;;;;;;;;12.50;99.90;;;;;;5033191;28;19913;-75
2023/11/16 12:54:16;;;;;;;;;;;12.30;99.90;;;;;;5051121;28;19909;-74
2023/11/16 12:56:41;;;;;;;;;;;12.20;99.90;;;;;;5033670;28;19915;-75
2023/11/16 12:59:07;;;;;;;;;;;12.10;99.90;;;;;;5050927;28;20320;-75
2023/11/16 13:01:33;;;;;;;;;;;12.10;99.90;;;;;;5051020;28;20372;-75
2023/11/16 13:03:59;;;;;;;;;;;12.20;99.90;;;;;;5033154;28;19913;-75
2023/11/16 13:06:25;;;;;;;;;;;12.10;99.90;;;;;;5050903;28;19916;-76
2023/11/16 13:08:51;;;;;;;;;;;12.20;99.90;;;;;;5033098;28;19923;-74
2023/11/16 13:11:17;;;;;;;;;;;12.30;99.90;;;;;;5033365;28;19904;-75
2023/11/16 13:13:43;;;;;;;;;;;12.30;99.90;;;;;;5050646;28;19923;-75
2023/11/16 13:16:09;;;;;;;;;;;12.30;99.90;;;;;;5051105;28;19963;-75
2023/11/16 13:18:38;;;;;;;;;;;12.40;99.90;;;;;;5051031;28;19911;-75
2023/11/16 13:21:09;;;;;;;;;;;12.40;99.90;;;;;;5045068;28;19909;-75
2023/11/16 13:23:35;;;;;;;;;;;12.40;99.90;;;;;;5013796;28;19908;-75
2023/11/16 13:26:00;;;;;;;;;;;12.40;99.90;;;;;;5031366;28;19920;-75
2023/11/16 13:28:26;;;;;;;;;;;12.40;99.90;;;;;;5013308;28;19950;-75
2023/11/16 13:30:51;;;;;;;;;;;12.40;99.90;;;;;;5012909;28;19912;-75
2023/11/16 13:33:17;;;;;;;;;;;12.30;99.90;;;;;;5013462;28;19916;-74
2023/11/16 13:35:42;;;;;;;;;;;12.30;99.90;;;;;;5031340;28;19954;-75
2023/11/16 13:38:08;;;;;;;;;;;12.20;99.90;;;;;;5031835;28;19909;-75
2023/11/16 13:40:33;;;;;;;;;;;12.10;99.90;;;;;;5030832;28;19909;-75
2023/11/16 13:42:59;;;;;;;;;;;12.10;99.90;;;;;;5013261;28;19909;-74
2023/11/16 13:45:24;;;;;;;;;;;12.10;99.90;;;;;;5031901;28;19905;-74
2023/11/16 13:47:50;;;;;;;;;;;12.10;99.90;;;;;;5044440;28;19916;-75
2023/11/16 13:50:16;;;;;;;;;;;12.10;99.90;;;;;;5072274;28;19999;-76
2023/11/16 13:52:44;;;;;;;;;;;12.10;99.90;;;;;;5054621;28;20383;-76
2023/11/16 13:55:10;;;;;;;;;;;12.10;99.90;;;;;;5053190;28;20418;-75
2023/11/16 13:57:38;;;;;;;;;;;12.00;99.90;;;;;;5052483;28;20006;-75
2023/11/16 14:00:04;;;;;;;;;;;12.00;99.90;;;;;;5071244;28;19905;-75
2023/11/16 14:02:30;;;;;;;;;;;12.00;99.90;;;;;;5055969;28;19910;-74
2023/11/16 14:04:55;;;;;;;;;;;12.00;99.90;;;;;;5055929;28;19904;-75
2023/11/16 14:07:26;;;;;;;;;;;12.00;99.90;;;;;;5055911;28;20364;-75
2023/11/16 14:09:57;;;;;;;;;;;11.90;99.90;;;;;;5055956;28;19950;-74
2023/11/16 14:12:26;;;;;;;;;;;11.80;99.90;;;;;;5055827;28;19909;-74
2023/11/16 14:14:54;;;;;;;;;;;11.70;99.90;;;;;;5056015;28;20281;-74
2023/11/16 14:17:21;;;;;;;;;;;11.60;99.90;;;;;;5055663;28;19908;-75
2023/11/16 14:19:46;;;;;;;;;;;11.50;99.90;;;;;;5055737;28;19909;-75
2023/11/16 14:22:12;;;;;;;;;;;11.40;99.90;;;;;;5055332;28;19904;-74
2023/11/16 14:24:39;;;;;;;;;;;11.30;99.90;;;;;;5055438;28;19915;-74